Time;durP1;ratioP1;P1;durP2;ratioP2;P2;SDS_P1;SDS_P2;PMS_P1;PMS_P2;Temp;Humidity;BMP_temperature;BMP_pressure;BME280_temperature;BME280_humidity;BME280_pressure;Samples;Min_cycle;Max_cycle;Signal;HPM_P1;HPM_P2
2023/09/13 00:01:53;;;;;;;;;;;;;;;19.56;30.54;100627.00;5073801;28;19917;-65
2023/09/13 00:04:19;;;;;;;;;;;;;;;19.61;30.48;100637.13;5073868;28;20025;-65
2023/09/13 00:06:44;;;;;;;;;;;;;;;19.66;30.51;100642.66;5073936;28;19920;-65
2023/09/13 00:09:10;;;;;;;;;;;;;;;19.70;30.42;100630.19;5073763;28;19920;-65
2023/09/13 00:11:35;;;;;;;;;;;;;;;19.72;30.19;100636.22;5073991;28;19912;-65
2023/09/13 00:14:01;;;;;;;;;;;;;;;19.75;30.31;100638.47;5073845;28;19919;-65
2023/09/13 00:16:26;;;;;;;;;;;;;;;19.79;30.23;100617.00;5073971;28;20303;-65
2023/09/13 00:18:51;;;;;;;;;;;;;;;19.76;30.24;100629.25;5055786;28;20533;-65
2023/09/13 00:21:17;;;;;;;;;;;;;;;19.71;30.24;100637.31;5074164;28;20424;-65
2023/09/13 00:23:43;;;;;;;;;;;;;;;19.68;30.13;100643.25;5073173;28;19962;-65
2023/09/13 00:26:08;;;;;;;;;;;;;;;19.72;30.11;100638.94;5055726;28;19916;-66
2023/09/13 00:28:33;;;;;;;;;;;;;;;19.71;30.09;100634.59;5073510;28;20393;-66
2023/09/13 00:30:59;;;;;;;;;;;;;;;19.66;30.19;100631.78;5073581;28;19917;-66
2023/09/13 00:33:24;;;;;;;;;;;;;;;19.63;29.99;100637.72;5073213;28;19920;-66
2023/09/13 00:35:54;;;;;;;;;;;;;;;19.62;30.06;100634.16;5073303;28;19919;-65
2023/09/13 00:38:19;;;;;;;;;;;;;;;19.64;29.87;100631.19;5073654;28;19939;-66
2023/09/13 00:40:45;;;;;;;;;;;;;;;19.67;29.89;100633.44;5073380;28;19913;-66
2023/09/13 00:43:10;;;;;;;;;;;;;;;19.58;30.17;100641.19;5073088;28;20377;-65
2023/09/13 00:45:35;;;;;;;;;;;;;;;19.57;29.96;100644.16;5073270;28;20273;-65
2023/09/13 00:48:01;;;;;;;;;;;;;;;19.57;29.86;100636.00;5073563;28;19947;-65
2023/09/13 00:50:26;;;;;;;;;;;;;;;19.48;29.89;100635.59;5073121;28;19927;-66
2023/09/13 00:52:52;;;;;;;;;;;;;;;19.49;29.88;100623.63;5073026;28;19983;-66
2023/09/13 00:55:19;;;;;;;;;;;;;;;19.48;29.89;100635.59;5077669;28;19926;-66
2023/09/13 00:57:46;;;;;;;;;;;;;;;19.46;29.91;100635.00;5092953;28;19916;-66
2023/09/13 01:00:12;;;;;;;;;;;;;;;19.46;30.08;100627.66;5088437;28;19916;-65
2023/09/13 01:02:40;;;;;;;;;;;;;;;19.47;30.01;100634.75;5060557;28;20344;-65
2023/09/13 01:05:11;;;;;;;;;;;;;;;19.48;29.86;100639.16;5053438;28;19912;-65
2023/09/13 01:07:40;;;;;;;;;;;;;;;19.43;29.88;100644.50;5052855;28;19927;-65
2023/09/13 01:10:06;;;;;;;;;;;;;;;19.48;30.09;100639.16;5053151;28;19917;-66
2023/09/13 01:12:31;;;;;;;;;;;;;;;19.49;29.94;100638.06;5052809;28;19913;-65
2023/09/13 01:14:57;;;;;;;;;;;;;;;19.43;29.97;100639.06;5052934;28;20368;-66
2023/09/13 01:17:32;;;;;;;;;;;;;;;19.38;29.98;100643.59;5035137;28;19913;-66
2023/09/13 01:20:07;;;;;;;;;;;;;;;19.38;29.76;100635.44;5052947;28;19916;-65
2023/09/13 01:22:47;;;;;;;;;;;;;;;19.38;29.99;100652.59;5052932;28;19913;-66
2023/09/13 01:25:31;;;;;;;;;;;;;;;19.33;29.95;100652.50;5052984;28;20097;-65
2023/09/13 01:28:15;;;;;;;;;;;;;;;19.27;29.84;100665.22;5070709;28;20444;-65
2023/09/13 01:30:42;;;;;;;;;;;;;;;19.21;30.16;100663.47;5073142;28;19923;-65
2023/09/13 01:33:07;;;;;;;;;;;;;;;19.17;30.06;100664.19;5072863;28;20350;-66
2023/09/13 01:35:32;;;;;;;;;;;;;;;19.15;30.19;100662.56;5072977;28;19967;-66
2023/09/13 01:37:57;;;;;;;;;;;;;;;19.14;30.12;100665.53;5072931;28;19912;-65
2023/09/13 01:40:26;;;;;;;;;;;;;;;19.06;30.22;100669.47;5054774;28;19916;-65
2023/09/13 01:42:52;;;;;;;;;;;;;;;19.05;30.18;100669.72;5073021;28;19920;-65
2023/09/13 01:45:18;;;;;;;;;;;;;;;18.68;30.13;100623.84;5072932;28;19916;-66
2023/09/13 01:47:45;;;;;;;;;;;;;;;19.00;30.23;100681.38;5072698;28;19913;-66
2023/09/13 01:50:11;;;;;;;;;;;;;;;18.93;30.46;100678.78;5072990;28;19916;-65
2023/09/13 01:52:36;;;;;;;;;;;;;;;18.93;30.22;100675.25;5072652;28;20296;-65
2023/09/13 01:55:08;;;;;;;;;;;;;;;18.89;30.29;100679.53;5076826;28;19912;-66
2023/09/13 01:57:33;;;;;;;;;;;;;;;18.83;30.68;100675.84;5082393;28;19912;-65
2023/09/13 01:59:58;;;;;;;;;;;;;;;18.77;30.58;100683.06;5076283;28;19922;-65
2023/09/13 02:02:23;;;;;;;;;;;;;;;18.75;30.53;100689.81;5066199;28;19913;-66
2023/09/13 02:04:49;;;;;;;;;;;;;;;18.67;30.44;100695.66;5056370;28;20423;-66
2023/09/13 02:07:16;;;;;;;;;;;;;;;18.64;30.65;100696.97;5056211;28;19917;-66
2023/09/13 02:09:42;;;;;;;;;;;;;;;18.66;30.37;100689.38;5056567;28;19952;-66
2023/09/13 02:12:09;;;;;;;;;;;;;;;18.65;30.47;100697.81;5056360;28;19952;-66
2023/09/13 02:14:35;;;;;;;;;;;;;;;18.57;30.73;100691.69;5056485;28;19920;-66
2023/09/13 02:17:00;;;;;;;;;;;;;;;18.49;30.67;100686.59;5056448;28;19912;-65
2023/09/13 02:19:26;;;;;;;;;;;;;;;18.47;30.82;100688.72;5056243;28;19917;-66
2023/09/13 02:21:51;;;;;;;;;;;;;;;18.16;31.33;100685.38;5056114;28;19920;-66
2023/09/13 02:24:17;;;;;;;;;;;;;;;18.07;31.77;100685.97;5055839;28;19962;-66
2023/09/13 02:26:42;;;;;;;;;;;;;;;18.33;31.62;100692.78;5071047;28;19920;-66
2023/09/13 02:29:07;;;;;;;;;;;;;;;18.40;31.01;100696.19;5075795;28;19923;-66
2023/09/13 02:31:32;;;;;;;;;;;;;;;18.41;31.07;100688.88;5057980;28;20003;-66
2023/09/13 02:33:58;;;;;;;;;;;;;;;18.40;30.88;100687.22;5076068;28;19923;-66
2023/09/13 02:36:24;;;;;;;;;;;;;;;18.38;30.86;100692.88;5058376;28;19951;-65
2023/09/13 02:38:52;;;;;;;;;;;;;;;18.32;30.82;100689.25;5075663;28;19916;-66
2023/09/13 02:41:17;;;;;;;;;;;;;;;18.26;30.81;100692.09;5075774;28;19912;-66
2023/09/13 02:43:42;;;;;;;;;;;;;;;18.22;31.27;100690.91;5075562;28;20272;-66
2023/09/13 02:46:08;;;;;;;;;;;;;;;18.17;31.30;100700.59;5075678;28;19923;-66
2023/09/13 02:48:33;;;;;;;;;;;;;;;18.09;31.40;100694.69;5075552;28;19917;-66
2023/09/13 02:50:58;;;;;;;;;;;;;;;18.05;31.23;100685.38;5075151;28;19918;-65
2023/09/13 02:53:23;;;;;;;;;;;;;;;18.02;31.43;100697.56;5075347;28;19958;-65
2023/09/13 02:55:49;;;;;;;;;;;;;;;17.96;31.20;100693.91;5084317;28;19920;-65
2023/09/13 02:58:14;;;;;;;;;;;;;;;17.94;31.47;100696.03;5095221;28;20025;-66
2023/09/13 03:00:43;;;;;;;;;;;;;;;17.92;31.59;100700.88;5095680;28;19912;-66
2023/09/13 03:03:08;;;;;;;;;;;;;;;17.92;31.54;100709.03;5078945;28;19935;-65
2023/09/13 03:05:33;;;;;;;;;;;;;;;17.87;31.44;100713.53;5075453;28;20369;-65
2023/09/13 03:07:59;;;;;;;;;;;;;;;17.82;31.44;100719.63;5075096;28;19938;-64
2023/09/13 03:10:25;;;;;;;;;;;;;;;17.72;32.30;100725.63;5075568;28;19912;-65
2023/09/13 03:12:51;;;;;;;;;;;;;;;17.73;31.65;100723.75;5075361;28;19912;-66
2023/09/13 03:15:16;;;;;;;;;;;;;;;17.67;31.66;100722.78;5074982;28;20004;-65
2023/09/13 03:17:41;;;;;;;;;;;;;;;17.45;32.48;100741.53;5075025;28;19956;-66
2023/09/13 03:20:09;;;;;;;;;;;;;;;17.40;32.72;100741.38;5075196;28;19912;-66
2023/09/13 03:22:34;;;;;;;;;;;;;;;17.60;32.42;100752.75;5074511;28;19947;-66
2023/09/13 03:25:00;;;;;;;;;;;;;;;17.51;32.58;100750.63;5074650;28;19959;-66
2023/09/13 03:27:25;;;;;;;;;;;;;;;17.53;32.69;100760.22;5074702;28;19942;-66
2023/09/13 03:29:50;;;;;;;;;;;;;;;17.57;32.75;100760.56;5074686;28;19912;-65
2023/09/13 03:32:15;;;;;;;;;;;;;;;17.67;32.61;100768.16;5074758;28;19912;-65
2023/09/13 03:34:41;;;;;;;;;;;;;;;17.72;32.33;100757.41;5074776;28;19912;-66
2023/09/13 03:37:07;;;;;;;;;;;;;;;17.81;32.51;100755.97;5075221;28;20285;-65
2023/09/13 03:39:34;;;;;;;;;;;;;;;17.89;32.53;100758.41;5074686;28;19916;-65
2023/09/13 03:41:59;;;;;;;;;;;;;;;17.91;32.26;100763.59;5074962;28;19947;-65
2023/09/13 03:44:24;;;;;;;;;;;;;;;17.94;32.30;100753.09;5074623;28;20286;-65
2023/09/13 03:46:50;;;;;;;;;;;;;;;17.97;32.15;100749.06;5074402;28;19912;-65
2023/09/13 03:49:15;;;;;;;;;;;;;;;18.01;31.98;100755.69;5074340;28;19917;-65
2023/09/13 03:51:40;;;;;;;;;;;;;;;18.04;31.96;100759.84;5074238;28;20061;-65
2023/09/13 03:54:06;;;;;;;;;;;;;;;18.06;32.00;100766.69;5073732;28;20384;-65
2023/09/13 03:56:31;;;;;;;;;;;;;;;18.02;31.92;100770.94;5073913;28;20011;-64
2023/09/13 03:58:57;;;;;;;;;;;;;;;17.98;32.08;100757.00;5074219;28;20329;-64
2023/09/13 04:01:24;;;;;;;;;;;;;;;17.99;31.85;100752.38;5074261;28;19958;-64
2023/09/13 04:03:49;;;;;;;;;;;;;;;18.05;31.36;100758.75;5074085;28;19982;-65
2023/09/13 04:06:14;;;;;;;;;;;;;;;17.97;31.51;100760.75;5074216;28;19920;-65
2023/09/13 04:08:40;;;;;;;;;;;;;;;17.86;31.25;100761.56;5073777;28;19974;-64
2023/09/13 04:11:07;;;;;;;;;;;;;;;17.79;31.36;100767.09;5073980;28;19920;-65
2023/09/13 04:13:32;;;;;;;;;;;;;;;17.72;31.30;100768.28;5074338;28;19913;-65
2023/09/13 04:16:02;;;;;;;;;;;;;;;17.57;31.58;100763.28;5074347;28;20277;-65
2023/09/13 04:18:28;;;;;;;;;;;;;;;17.48;31.53;100765.50;5073325;28;19912;-65
2023/09/13 04:20:53;;;;;;;;;;;;;;;17.47;31.86;100765.72;5073574;28;19946;-65
2023/09/13 04:23:18;;;;;;;;;;;;;;;17.45;31.62;100763.25;5073432;28;19923;-65
2023/09/13 04:25:43;;;;;;;;;;;;;;;17.38;31.75;100770.66;5073365;28;19955;-65
2023/09/13 04:28:09;;;;;;;;;;;;;;;17.30;31.94;100768.28;5073397;28;19920;-65
2023/09/13 04:30:34;;;;;;;;;;;;;;;17.20;32.01;100761.53;5073785;28;20382;-65
2023/09/13 04:33:01;;;;;;;;;;;;;;;17.09;32.14;100769.63;5073917;28;20372;-65
2023/09/13 04:35:26;;;;;;;;;;;;;;;17.02;32.26;100761.56;5073588;28;20273;-64
2023/09/13 04:37:52;;;;;;;;;;;;;;;16.99;32.50;100768.28;5073687;28;19920;-64
2023/09/13 04:40:17;;;;;;;;;;;;;;;17.00;32.30;100767.22;5073795;28;20003;-65
2023/09/13 04:42:46;;;;;;;;;;;;;;;16.98;32.32;100773.94;5073506;28;19917;-64
2023/09/13 04:45:11;;;;;;;;;;;;;;;16.99;32.53;100781.00;5073489;28;19947;-64
2023/09/13 04:47:38;;;;;;;;;;;;;;;16.92;32.24;100781.09;5073392;28;19951;-65
2023/09/13 04:50:05;;;;;;;;;;;;;;;16.81;33.33;100781.84;5073370;28;19912;-65
2023/09/13 04:52:30;;;;;;;;;;;;;;;16.80;32.78;100782.88;5073551;28;19916;-65
2023/09/13 04:54:55;;;;;;;;;;;;;;;16.78;32.93;100780.38;5072502;28;19999;-65
2023/09/13 04:57:20;;;;;;;;;;;;;;;16.83;32.46;100787.88;5073368;28;19966;-65
2023/09/13 04:59:48;;;;;;;;;;;;;;;16.88;32.76;100785.31;5073094;28;19912;-65
2023/09/13 05:02:13;;;;;;;;;;;;;;;16.87;32.52;100785.56;5073057;28;19919;-64
2023/09/13 05:04:39;;;;;;;;;;;;;;;16.91;32.54;100792.19;5073238;28;20078;-64
2023/09/13 05:07:05;;;;;;;;;;;;;;;16.92;32.42;100800.09;5073398;28;19912;-64
2023/09/13 05:09:30;;;;;;;;;;;;;;;16.88;32.86;100806.19;5073003;28;19957;-65
2023/09/13 05:11:55;;;;;;;;;;;;;;;16.87;32.91;100809.97;5073184;28;19912;-65
2023/09/13 05:14:20;;;;;;;;;;;;;;;16.87;32.69;100813.50;5073135;28;19938;-65
2023/09/13 05:16:48;;;;;;;;;;;;;;;16.86;32.83;100814.53;5073420;28;19917;-65
2023/09/13 05:19:13;;;;;;;;;;;;;;;16.80;33.12;100818.97;5073130;28;19916;-65
2023/09/13 05:21:38;;;;;;;;;;;;;;;16.81;32.66;100820.63;5073014;28;19973;-65
2023/09/13 05:24:04;;;;;;;;;;;;;;;16.80;33.31;100823.56;5073157;28;19944;-65
2023/09/13 05:26:29;;;;;;;;;;;;;;;16.79;33.17;100839.03;5073009;28;19955;-65
2023/09/13 05:28:55;;;;;;;;;;;;;;;16.86;33.22;100844.38;5082171;28;19920;-65
2023/09/13 05:31:20;;;;;;;;;;;;;;;16.88;32.75;100844.16;5076697;28;20372;-65
2023/09/13 05:33:45;;;;;;;;;;;;;;;16.87;32.79;100842.53;5076937;28;19966;-65
2023/09/13 05:36:12;;;;;;;;;;;;;;;16.81;33.33;100847.75;5077070;28;19912;-65
2023/09/13 05:38:37;;;;;;;;;;;;;;;16.81;33.26;100849.66;5077341;28;19916;-66
2023/09/13 05:41:09;;;;;;;;;;;;;;;16.88;32.95;100858.53;5077102;28;20004;-65
2023/09/13 05:43:35;;;;;;;;;;;;;;;16.93;33.00;100853.28;5076758;28;19916;-65
2023/09/13 05:46:00;;;;;;;;;;;;;;;17.00;33.06;100854.03;5076717;28;20323;-65
2023/09/13 05:48:25;;;;;;;;;;;;;;;16.99;33.24;100851.53;5076824;28;19931;-65
2023/09/13 05:50:51;;;;;;;;;;;;;;;16.96;33.33;100858.25;5076608;28;19912;-66
2023/09/13 05:53:19;;;;;;;;;;;;;;;16.97;33.26;100857.19;5076597;28;19920;-66
2023/09/13 05:55:45;;;;;;;;;;;;;;;17.00;33.09;100856.75;5075659;28;19920;-66
2023/09/13 05:58:10;;;;;;;;;;;;;;;17.03;33.10;100848.16;5076184;28;20327;-66
2023/09/13 06:00:35;;;;;;;;;;;;;;;17.07;33.49;100855.84;5076419;28;19913;-66
2023/09/13 06:03:00;;;;;;;;;;;;;;;17.13;32.97;100855.75;5076080;28;19913;-66
2023/09/13 06:05:26;;;;;;;;;;;;;;;17.09;32.91;100856.47;5076223;28;19920;-66
2023/09/13 06:07:51;;;;;;;;;;;;;;;17.14;33.08;100860.16;5076129;28;19921;-66
2023/09/13 06:10:16;;;;;;;;;;;;;;;17.15;32.85;100866.41;5076348;28;19912;-66
2023/09/13 06:12:42;;;;;;;;;;;;;;;17.21;32.91;100860.88;5076241;28;19917;-66
2023/09/13 06:15:07;;;;;;;;;;;;;;;17.22;33.20;100862.53;5076512;28;20368;-66
2023/09/13 06:17:33;;;;;;;;;;;;;;;17.23;32.96;100863.38;5058391;28;20010;-66
2023/09/13 06:19:58;;;;;;;;;;;;;;;17.22;33.05;100867.97;5076169;28;19913;-66
2023/09/13 06:22:24;;;;;;;;;;;;;;;17.25;33.00;100874.81;5075897;28;19944;-66
2023/09/13 06:24:50;;;;;;;;;;;;;;;17.27;32.92;100870.00;5075719;28;19916;-66
2023/09/13 06:27:15;;;;;;;;;;;;;;;17.29;33.12;100883.34;5081825;28;19938;-66
2023/09/13 06:29:40;;;;;;;;;;;;;;;17.38;32.73;100890.13;5079138;28;20378;-66
2023/09/13 06:32:06;;;;;;;;;;;;;;;17.36;32.51;100900.38;5075949;28;20007;-66
2023/09/13 06:34:32;;;;;;;;;;;;;;;17.45;32.63;100898.19;5076047;28;19962;-66
2023/09/13 06:36:58;;;;;;;;;;;;;;;17.51;32.31;100902.69;5076271;28;19919;-66
2023/09/13 06:39:23;;;;;;;;;;;;;;;17.54;32.60;100904.97;5076121;28;19913;-66
2023/09/13 06:41:48;;;;;;;;;;;;;;;17.55;32.66;100907.47;5075406;28;20288;-66
2023/09/13 06:44:14;;;;;;;;;;;;;;;17.57;32.55;100894.47;5077244;28;20039;-66
2023/09/13 06:46:40;;;;;;;;;;;;;;;17.64;32.14;100891.66;5077405;28;19923;-66
2023/09/13 06:49:06;;;;;;;;;;;;;;;17.66;32.43;100900.38;5058811;28;19917;-66
2023/09/13 06:51:31;;;;;;;;;;;;;;;17.69;32.34;100902.66;5076737;28;19912;-65
2023/09/13 06:53:57;;;;;;;;;;;;;;;17.75;32.12;100900.91;5077847;28;19916;-65
2023/09/13 06:56:22;;;;;;;;;;;;;;;17.76;32.03;100900.69;5077501;28;19944;-65
2023/09/13 06:58:48;;;;;;;;;;;;;;;17.75;31.57;100898.19;5075507;28;19924;-66
2023/09/13 07:01:13;;;;;;;;;;;;;;;17.80;31.93;100899.16;5075452;28;19958;-66
2023/09/13 07:03:38;;;;;;;;;;;;;;;17.84;31.88;100896.81;5075155;28;19939;-66
2023/09/13 07:06:04;;;;;;;;;;;;;;;17.90;32.01;100904.06;5075534;28;20234;-65
2023/09/13 07:08:29;;;;;;;;;;;;;;;17.92;31.84;100911.97;5075043;28;19931;-65
2023/09/13 07:10:54;;;;;;;;;;;;;;;18.00;31.90;100908.94;5075350;28;20060;-64
2023/09/13 07:13:20;;;;;;;;;;;;;;;18.02;31.91;100912.25;5075476;28;20032;-64
2023/09/13 07:15:46;;;;;;;;;;;;;;;18.05;31.71;100913.69;5040585;28;19917;-64
2023/09/13 07:18:11;;;;;;;;;;;;;;;18.09;31.53;100917.59;5075459;28;19913;-64
2023/09/13 07:20:36;;;;;;;;;;;;;;;18.09;31.51;100902.13;5074915;28;19913;-64
2023/09/13 07:23:02;;;;;;;;;;;;;;;18.16;31.41;100916.44;5074504;28;19917;-64
2023/09/13 07:25:27;;;;;;;;;;;;;;;18.18;31.59;100916.19;5074800;28;19912;-64
2023/09/13 07:27:52;;;;;;;;;;;;;;;18.18;31.46;100908.03;5083535;28;19963;-64
2023/09/13 07:30:18;;;;;;;;;;;;;;;18.21;31.06;100904.03;5074611;28;19974;-64
2023/09/13 07:32:44;;;;;;;;;;;;;;;18.27;30.96;100906.63;5075094;28;19913;-64
2023/09/13 07:35:09;;;;;;;;;;;;;;;18.31;31.09;100905.13;5074665;28;20000;-64
2023/09/13 07:37:34;;;;;;;;;;;;;;;18.32;31.06;100906.75;5075068;28;19959;-64
2023/09/13 07:40:00;;;;;;;;;;;;;;;18.35;31.02;100909.03;5074590;28;20339;-64
2023/09/13 07:42:25;;;;;;;;;;;;;;;18.36;30.72;100902.50;5074685;28;19917;-64
2023/09/13 07:44:50;;;;;;;;;;;;;;;18.43;30.92;100905.13;5074476;28;19943;-64
2023/09/13 07:47:15;;;;;;;;;;;;;;;18.46;30.89;100910.09;5074099;28;19920;-64
2023/09/13 07:49:41;;;;;;;;;;;;;;;18.50;30.61;100908.56;5056343;28;19916;-64
2023/09/13 07:52:06;;;;;;;;;;;;;;;18.56;30.71;100912.22;5073152;28;19912;-63
2023/09/13 07:54:31;;;;;;;;;;;;;;;18.63;30.73;100910.22;5073398;28;19944;-64
2023/09/13 07:56:57;;;;;;;;;;;;;;;18.57;30.63;100908.44;5074147;28;19987;-64
2023/09/13 07:59:22;;;;;;;;;;;;;;;18.62;30.45;100905.84;5074014;28;19998;-64
2023/09/13 08:01:48;;;;;;;;;;;;;;;18.66;30.91;100909.75;5073728;28;19913;-64
2023/09/13 08:04:13;;;;;;;;;;;;;;;18.72;30.64;100911.53;5074135;28;19939;-64
2023/09/13 08:06:41;;;;;;;;;;;;;;;18.80;30.79;100923.13;5073820;28;20377;-63
2023/09/13 08:09:06;;;;;;;;;;;;;;;18.81;30.68;100922.91;5073508;28;19947;-64
2023/09/13 08:11:31;;;;;;;;;;;;;;;18.76;30.79;100928.22;5073986;28;19912;-64
2023/09/13 08:13:57;;;;;;;;;;;;;;;18.86;30.60;100933.09;5073721;28;19966;-65
2023/09/13 08:16:22;;;;;;;;;;;;;;;18.89;30.30;100932.63;5073487;28;20294;-64
2023/09/13 08:18:47;;;;;;;;;;;;;;;18.91;30.31;100931.31;5073486;28;20292;-64
2023/09/13 08:21:12;;;;;;;;;;;;;;;18.94;30.27;100935.44;5073843;28;19947;-64
2023/09/13 08:23:38;;;;;;;;;;;;;;;19.01;30.21;100936.16;5073280;28;20337;-65
2023/09/13 08:26:03;;;;;;;;;;;;;;;19.09;30.47;100937.66;5073473;28;20044;-65
2023/09/13 08:28:29;;;;;;;;;;;;;;;19.09;30.03;100937.66;5082662;28;20012;-65
2023/09/13 08:30:54;;;;;;;;;;;;;;;19.18;30.21;100946.31;5073517;28;19974;-64
2023/09/13 08:33:19;;;;;;;;;;;;;;;19.20;30.12;100936.81;5073385;28;20392;-64
2023/09/13 08:35:46;;;;;;;;;;;;;;;19.21;29.92;100941.22;5073349;28;19917;-64
2023/09/13 08:38:11;;;;;;;;;;;;;;;19.30;30.20;100941.69;5073536;28;19912;-65
2023/09/13 08:40:40;;;;;;;;;;;;;;;19.36;29.49;100939.91;5073429;28;19995;-64
2023/09/13 08:43:07;;;;;;;;;;;;;;;19.42;30.15;100938.91;5073416;28;19912;-64
2023/09/13 08:45:34;;;;;;;;;;;;;;;19.50;30.09;100942.09;5073817;28;19919;-64
2023/09/13 08:48:01;;;;;;;;;;;;;;;19.58;30.21;100943.63;5055733;28;19920;-64
2023/09/13 08:50:28;;;;;;;;;;;;;;;19.58;29.69;100940.91;5073614;28;19923;-65
2023/09/13 08:52:55;;;;;;;;;;;;;;;19.69;29.91;100945.47;5073435;28;19912;-66
2023/09/13 08:55:20;;;;;;;;;;;;;;;19.78;29.99;100947.84;5072789;28;19920;-64
2023/09/13 08:57:47;;;;;;;;;;;;;;;19.84;29.66;100947.69;5073142;28;20296;-63
2023/09/13 09:00:13;;;;;;;;;;;;;;;19.88;29.67;100937.13;5073148;28;19918;-63
2023/09/13 09:02:39;;;;;;;;;;;;;;;19.89;29.35;100942.34;5060683;28;19913;-64
2023/09/13 09:05:07;;;;;;;;;;;;;;;20.04;29.68;100951.84;5052882;28;19971;-64
2023/09/13 09:07:33;;;;;;;;;;;;;;;20.19;29.15;100948.56;5052590;28;19929;-64
2023/09/13 09:09:59;;;;;;;;;;;;;;;20.30;29.36;100962.16;5053099;28;19966;-64
2023/09/13 09:12:25;;;;;;;;;;;;;;;20.37;29.40;100959.25;5053276;28;19920;-64
2023/09/13 09:14:52;;;;;;;;;;;;;;;20.49;29.00;100953.75;5053707;28;19968;-64
2023/09/13 09:17:22;;;;;;;;;;;;;;;20.54;29.10;100950.25;5073015;28;19916;-64
2023/09/13 09:19:47;;;;;;;;;;;;;;;20.62;28.83;100961.63;5073100;28;19962;-64
2023/09/13 09:22:13;;;;;;;;;;;;;;;20.78;28.83;100970.06;5072755;28;19912;-64
2023/09/13 09:24:39;;;;;;;;;;;;;;;20.95;28.72;100962.69;5072922;28;19912;-64
2023/09/13 09:27:04;;;;;;;;;;;;;;;21.13;28.29;100979.84;5076786;28;19912;-64
2023/09/13 09:29:36;;;;;;;;;;;;;;;21.28;27.99;100963.66;5077371;28;19917;-64
2023/09/13 09:32:03;;;;;;;;;;;;;;;21.42;27.79;100961.41;5072794;28;20320;-64
2023/09/13 09:34:29;;;;;;;;;;;;;;;21.50;27.90;100971.91;5072546;28;19913;-64
2023/09/13 09:37:01;;;;;;;;;;;;;;;21.60;26.76;100973.94;5072836;28;19923;-64
2023/09/13 09:39:26;;;;;;;;;;;;;;;21.74;26.77;100969.75;5072706;28;19939;-64
2023/09/13 09:41:57;;;;;;;;;;;;;;;21.88;27.58;100974.81;5072654;28;19913;-64
2023/09/13 09:44:26;;;;;;;;;;;;;;;21.99;27.10;100974.69;5073236;28;20274;-64
2023/09/13 09:46:52;;;;;;;;;;;;;;;22.18;27.28;100977.06;5072907;28;19923;-64
2023/09/13 09:49:17;;;;;;;;;;;;;;;22.39;26.66;100980.81;5072921;28;19917;-64
2023/09/13 09:51:43;;;;;;;;;;;;;;;22.58;26.24;100984.84;5072428;28;19969;-64
2023/09/13 09:54:09;;;;;;;;;;;;;;;22.67;26.40;100976.13;5071929;28;19920;-64
2023/09/13 09:56:34;;;;;;;;;;;;;;;22.82;26.63;100978.97;5072189;28;19912;-64
2023/09/13 09:58:59;;;;;;;;;;;;;;;22.90;26.11;100980.41;5072284;28;20392;-64
2023/09/13 10:01:25;;;;;;;;;;;;;;;23.03;26.51;100982.69;5070021;28;20005;-64
2023/09/13 10:03:54;;;;;;;;;;;;;;;23.06;26.11;100990.41;5052195;28;20255;-64
2023/09/13 10:06:20;;;;;;;;;;;;;;;23.24;26.64;100983.66;5052433;28;19924;-64
2023/09/13 10:08:46;;;;;;;;;;;;;;;23.32;26.06;100983.16;5063734;28;19921;-64
2023/09/13 10:11:15;;;;;;;;;;;;;;;23.39;25.41;100986.47;5072665;28;19920;-64
2023/09/13 10:13:44;;;;;;;;;;;;;;;23.49;25.61;100988.44;5072651;28;19990;-64
2023/09/13 10:16:11;;;;;;;;;;;;;;;23.61;25.54;100990.97;5074277;28;19916;-64
2023/09/13 10:18:51;;;;;;;;;;;;;;;23.81;25.65;100993.00;5075974;28;19948;-64
2023/09/13 10:21:27;;;;;;;;;;;;;;;24.02;25.72;100990.31;5075912;28;19916;-64
2023/09/13 10:23:53;;;;;;;;;;;;;;;24.19;25.82;100990.06;5075899;28;19913;-64
2023/09/13 10:26:18;;;;;;;;;;;;;;;24.31;24.94;100988.72;5075879;28;19916;-64
2023/09/13 10:28:44;;;;;;;;;;;;;;;24.47;25.51;100994.19;5075860;28;19942;-65
2023/09/13 10:31:14;;;;;;;;;;;;;;;24.61;24.60;101000.84;5076141;28;19916;-65
2023/09/13 10:33:41;;;;;;;;;;;;;;;24.78;24.63;101005.22;5075886;28;20381;-64
2023/09/13 10:36:07;;;;;;;;;;;;;;;24.87;24.59;101015.38;5075717;28;20416;-65
2023/09/13 10:38:44;;;;;;;;;;;;;;;25.00;24.71;101000.25;5076241;28;19913;-65
2023/09/13 10:41:13;;;;;;;;;;;;;;;25.10;24.43;101004.91;5076252;28;19916;-65
2023/09/13 10:43:39;;;;;;;;;;;;;;;25.23;23.71;100996.09;5075246;28;19952;-64
2023/09/13 10:46:04;;;;;;;;;;;;;;;25.26;23.93;101005.72;5075351;28;19954;-64
2023/09/13 10:48:30;;;;;;;;;;;;;;;25.39;23.92;101007.88;5075390;28;20280;-65
2023/09/13 10:50:56;;;;;;;;;;;;;;;25.46;23.53;101013.91;5075574;28;19917;-65
2023/09/13 10:53:23;;;;;;;;;;;;;;;25.56;23.64;101015.00;5075087;28;19912;-65
2023/09/13 10:55:49;;;;;;;;;;;;;;;25.73;23.11;101020.16;5084086;28;19964;-65
2023/09/13 10:58:20;;;;;;;;;;;;;;;25.86;23.85;101017.59;5095506;28;20365;-64
2023/09/13 11:00:46;;;;;;;;;;;;;;;25.89;23.75;101024.44;5095664;28;19920;-65
2023/09/13 11:03:11;;;;;;;;;;;;;;;26.03;23.85;101017.25;5078058;28;20280;-65
2023/09/13 11:05:37;;;;;;;;;;;;;;;26.13;23.07;101016.34;5074969;28;19919;-65
2023/09/13 11:08:02;;;;;;;;;;;;;;;26.25;22.85;101024.28;5074445;28;20388;-65
2023/09/13 11:10:31;;;;;;;;;;;;;;;26.41;23.47;101012.06;5075026;28;19960;-65
2023/09/13 11:13:04;;;;;;;;;;;;;;;26.56;22.66;101022.13;5075532;28;19944;-65
2023/09/13 11:15:29;;;;;;;;;;;;;;;26.69;22.45;101023.44;5074697;28;19916;-65
2023/09/13 11:17:56;;;;;;;;;;;;;;;26.80;23.36;101018.66;5074968;28;19913;-65
2023/09/13 11:20:32;;;;;;;;;;;;;;;27.02;23.24;101026.44;5074631;28;20327;-65
2023/09/13 11:23:01;;;;;;;;;;;;;;;27.27;23.75;101025.41;5074521;28;19958;-65
2023/09/13 11:25:30;;;;;;;;;;;;;;;27.41;22.94;101020.00;5074965;28;20329;-65
2023/09/13 11:27:56;;;;;;;;;;;;;;;27.60;22.63;101009.03;5074452;28;19916;-65
2023/09/13 11:30:41;;;;;;;;;;;;;;;27.73;22.28;101012.97;5074629;28;19978;-65
2023/09/13 11:33:07;;;;;;;;;;;;;;;27.85;21.32;101010.63;5074423;28;20396;-65
2023/09/13 11:35:34;;;;;;;;;;;;;;;28.02;21.77;101014.84;5074302;28;19989;-65
2023/09/13 11:37:59;;;;;;;;;;;;;;;28.16;21.57;101010.22;5074762;28;19912;-65
2023/09/13 11:40:25;;;;;;;;;;;;;;;28.26;22.33;101014.75;5074814;28;19912;-65
2023/09/13 11:42:51;;;;;;;;;;;;;;;28.33;21.00;101016.03;5074424;28;19912;-65
2023/09/13 11:45:17;;;;;;;;;;;;;;;28.43;19.96;101011.47;5074753;28;19916;-65
2023/09/13 11:47:42;;;;;;;;;;;;;;;28.52;20.60;101023.47;5074169;28;20011;-65
2023/09/13 11:50:08;;;;;;;;;;;;;;;28.71;21.34;101020.69;5074225;28;19919;-65
2023/09/13 11:52:53;;;;;;;;;;;;;;;28.82;21.13;101021.34;5074130;28;19913;-65
2023/09/13 11:55:25;;;;;;;;;;;;;;;28.93;19.55;101018.09;5055807;28;20361;-65
2023/09/13 11:57:51;;;;;;;;;;;;;;;29.12;20.19;101025.50;5073909;28;19999;-65
2023/09/13 12:00:22;;;;;;;;;;;;;;;29.33;20.65;101014.91;5070701;28;20036;-65
2023/09/13 12:02:47;;;;;;;;;;;;;;;29.48;20.34;101020.13;5053780;28;19924;-65
2023/09/13 12:05:12;;;;;;;;;;;;;;;29.71;19.61;101014.66;5067924;28;19916;-65
2023/09/13 12:07:37;;;;;;;;;;;;;;;29.87;19.98;101020.72;5073749;28;20003;-65
2023/09/13 12:10:04;;;;;;;;;;;;;;;29.96;19.20;101018.03;5074038;28;19971;-65
2023/09/13 12:12:40;;;;;;;;;;;;;;;30.13;20.66;101031.22;5073920;28;19959;-65
2023/09/13 12:15:05;;;;;;;;;;;;;;;30.23;20.31;101023.50;5073774;28;20369;-65
2023/09/13 12:17:37;;;;;;;;;;;;;;;30.41;19.56;101021.72;5074164;28;19919;-65
2023/09/13 12:20:05;;;;;;;;;;;;;;;30.57;20.27;101018.56;5074056;28;19912;-65
2023/09/13 12:22:37;;;;;;;;;;;;;;;30.73;19.16;101019.00;5073538;28;20007;-66
2023/09/13 12:25:02;;;;;;;;;;;;;;;30.89;19.16;101014.72;5073480;28;19965;-66
2023/09/13 12:27:28;;;;;;;;;;;;;;;31.10;20.14;101017.78;5073219;28;20322;-66
2023/09/13 12:29:53;;;;;;;;;;;;;;;31.26;19.48;101019.00;5073342;28;19916;-66
2023/09/13 12:32:19;;;;;;;;;;;;;;;31.41;18.60;101023.28;5073590;28;19912;-66